Culbertson, MT (59218)

5:57 PM MDT on August 29, 2015 (GMT -0600)
APRSWXNET | | Change Station
CLOSE
Current Station
Personal Weather Station
Location: Culbertson, MT
Elevation: 1928 ft
Nearby Weather Stations
Active Advisory: Dense Smoke Advisory

Elev 1928 ft 48.14 °N, 104.50 °W | Updated 34 minutes ago

Mostly Cloudy
Mostly Cloudy
88 °F
Feels Like 87 °F
N
0
Wind Variable Wind from ENE
Gusts 0.0 mph

Today
High -- | Low -- °F
--% Chance of Precip.
Yesterday
High -- | Low -- °F
Precip. -- in
6:11 AM 7:45 PM
Full, 100% visible
Pressure 29.77 in
Visibility 5.0 miles
Clouds Clear
Heat Index 87 °F
Dew Point 59 °F
Humidity 38%
Rainfall in
Snow Depth Not available.
UV 1 out of 12
Pollen 10.20 out of 12
Air Quality Not available.
Flu Activity Not available.
METAR KSDY 292355Z AUTO 00000KT 5SM CLR 32/14 A2977 RMK AO1 10360 20280 403600110 57017
Pressure 29.77 in
Visibility 5.0 miles
Clouds Clear
Heat Index 87 °F
Dew Point 59 °F
Humidity 38%
Rainfall in
Snow Depth Not available.
UV 1 out of 12
Pollen 10.20 out of 12
Air Quality Not available.
Flu Activity Not available.
METAR KSDY 292355Z AUTO 00000KT 5SM CLR 32/14 A2977 RMK AO1 10360 20280 403600110 57017

10-Day Weather Forecast

×

Almanac

Astronomy

Aug. 29, 2015 Rise Set
Actual Time
Civil Twilight
Nautical Twilight
Astronomical Twilight
Moon
Length of Visible Light
Length of Day
Tomorrow will be .
, % of the Moon is Illuminated

Today's Extremes

State Highs State Lows

Community

WunderPhotos

Upload Photos

1,850,784 photos uploaded!

WunderBlogs® & News

Nearby

Air Quality

  Air Quality AQ Index Pollutant
Not available.

Snow Depth

Station Depth Elevation

Earthquake Activity

City Distance Mag. Time & Date
Minimum magnitude displayed is 2.5.

Coastal Water Temperatures

Place Temperature

Stations

Nearby Weather Stations

Station Location Temp. Windchill Dew Point Humidity Wind Precip. Elev Updated Type
                   
Dense Smoke Advisory
Statement as of 8:34 AM MDT on August 29, 2015

... Dense smoke advisory in effect until 4 am MDT Monday...

The National Weather Service in Glasgow has issued a dense smoke
advisory... which is in effect until 4 am MDT Monday.

* Timing... through Monday morning.

* Impacts... unhealthy air quality.

* Visibility... 3 miles or less can be expected.

Precautionary/preparedness actions...

When air quality levels are very unhealthy... state and local
health officials recommend that people with respiratory or heart
disease... the elderly... and children should avoid any outdoor
activity; everyone else should avoid prolonged exertion.

For more information... visit the Montana department of
environmental quality at www.Todaysair.Mt.Gov.